sensor_id;sensor_type;location;lat;lon;timestamp;P1;durP1;ratioP1;P2;durP2;ratioP2
6177;SDS011;3122;48.208;11.174;2023-12-07T00:03:07;24.47;;;12.40;;
6177;SDS011;3122;48.208;11.174;2023-12-07T00:08:11;23.37;;;12.00;;
6177;SDS011;3122;48.208;11.174;2023-12-07T00:13:11;20.20;;;12.70;;
6177;SDS011;3122;48.208;11.174;2023-12-07T00:18:12;21.23;;;12.53;;
6177;SDS011;3122;48.208;11.174;2023-12-07T00:23:13;20.20;;;12.30;;
6177;SDS011;3122;48.208;11.174;2023-12-07T00:28:13;23.13;;;12.90;;
6177;SDS011;3122;48.208;11.174;2023-12-07T00:33:14;21.53;;;12.50;;
6177;SDS011;3122;48.208;11.174;2023-12-07T00:38:14;17.10;;;11.40;;
6177;SDS011;3122;48.208;11.174;2023-12-07T00:43:15;17.20;;;11.10;;
6177;SDS011;3122;48.208;11.174;2023-12-07T00:48:17;19.90;;;12.23;;
6177;SDS011;3122;48.208;11.174;2023-12-07T00:53:17;17.60;;;10.60;;
6177;SDS011;3122;48.208;11.174;2023-12-07T00:58:18;17.50;;;11.20;;
6177;SDS011;3122;48.208;11.174;2023-12-07T01:03:18;19.33;;;12.70;;
6177;SDS011;3122;48.208;11.174;2023-12-07T01:08:19;19.60;;;11.70;;
6177;SDS011;3122;48.208;11.174;2023-12-07T01:13:19;23.50;;;13.90;;
6177;SDS011;3122;48.208;11.174;2023-12-07T01:18:20;19.03;;;12.20;;
6177;SDS011;3122;48.208;11.174;2023-12-07T01:23:20;19.57;;;12.70;;
6177;SDS011;3122;48.208;11.174;2023-12-07T01:28:21;20.60;;;13.00;;
6177;SDS011;3122;48.208;11.174;2023-12-07T01:33:22;23.73;;;12.80;;
6177;SDS011;3122;48.208;11.174;2023-12-07T01:38:22;20.87;;;12.50;;
6177;SDS011;3122;48.208;11.174;2023-12-07T01:43:23;20.07;;;12.47;;
6177;SDS011;3122;48.208;11.174;2023-12-07T01:48:24;24.70;;;14.10;;
6177;SDS011;3122;48.208;11.174;2023-12-07T01:53:28;20.60;;;12.67;;
6177;SDS011;3122;48.208;11.174;2023-12-07T01:58:29;17.87;;;11.97;;
6177;SDS011;3122;48.208;11.174;2023-12-07T02:03:31;22.83;;;12.77;;
6177;SDS011;3122;48.208;11.174;2023-12-07T02:08:31;17.63;;;10.67;;
6177;SDS011;3122;48.208;11.174;2023-12-07T02:13:32;17.77;;;10.93;;
6177;SDS011;3122;48.208;11.174;2023-12-07T02:24:24;19.67;;;11.30;;
6177;SDS011;3122;48.208;11.174;2023-12-07T02:29:28;16.00;;;10.50;;
6177;SDS011;3122;48.208;11.174;2023-12-07T02:34:29;18.17;;;10.90;;
6177;SDS011;3122;48.208;11.174;2023-12-07T02:39:30;20.00;;;11.83;;
6177;SDS011;3122;48.208;11.174;2023-12-07T02:44:30;19.43;;;10.63;;
6177;SDS011;3122;48.208;11.174;2023-12-07T02:49:31;16.97;;;10.30;;
6177;SDS011;3122;48.208;11.174;2023-12-07T02:54:32;23.83;;;12.80;;
6177;SDS011;3122;48.208;11.174;2023-12-07T02:59:32;19.27;;;11.20;;
6177;SDS011;3122;48.208;11.174;2023-12-07T03:04:33;21.83;;;13.33;;
6177;SDS011;3122;48.208;11.174;2023-12-07T03:09:34;19.67;;;12.47;;
6177;SDS011;3122;48.208;11.174;2023-12-07T03:14:35;19.23;;;10.90;;
6177;SDS011;3122;48.208;11.174;2023-12-07T03:19:39;17.80;;;11.57;;
6177;SDS011;3122;48.208;11.174;2023-12-07T03:24:43;18.30;;;10.77;;
6177;SDS011;3122;48.208;11.174;2023-12-07T03:29:45;17.83;;;10.80;;
6177;SDS011;3122;48.208;11.174;2023-12-07T03:34:46;18.20;;;11.40;;
6177;SDS011;3122;48.208;11.174;2023-12-07T03:39:47;19.57;;;11.83;;
6177;SDS011;3122;48.208;11.174;2023-12-07T03:44:47;20.63;;;12.60;;
6177;SDS011;3122;48.208;11.174;2023-12-07T03:49:48;19.60;;;10.77;;
6177;SDS011;3122;48.208;11.174;2023-12-07T03:54:49;19.30;;;11.80;;
6177;SDS011;3122;48.208;11.174;2023-12-07T03:59:49;17.60;;;10.60;;
6177;SDS011;3122;48.208;11.174;2023-12-07T04:04:50;19.27;;;11.40;;
6177;SDS011;3122;48.208;11.174;2023-12-07T04:09:51;22.40;;;12.70;;
6177;SDS011;3122;48.208;11.174;2023-12-07T04:14:52;23.73;;;14.50;;
6177;SDS011;3122;48.208;11.174;2023-12-07T04:19:52;19.47;;;11.03;;
6177;SDS011;3122;48.208;11.174;2023-12-07T04:24:53;19.17;;;11.27;;
6177;SDS011;3122;48.208;11.174;2023-12-07T04:29:53;21.90;;;12.67;;
6177;SDS011;3122;48.208;11.174;2023-12-07T04:34:54;22.60;;;12.00;;
6177;SDS011;3122;48.208;11.174;2023-12-07T04:39:55;21.10;;;11.70;;
6177;SDS011;3122;48.208;11.174;2023-12-07T04:44:55;20.30;;;11.20;;
6177;SDS011;3122;48.208;11.174;2023-12-07T04:49:56;15.67;;;10.13;;
6177;SDS011;3122;48.208;11.174;2023-12-07T04:54:56;19.60;;;11.20;;
6177;SDS011;3122;48.208;11.174;2023-12-07T04:59:57;18.60;;;10.60;;
6177;SDS011;3122;48.208;11.174;2023-12-07T05:04:58;17.23;;;10.60;;
6177;SDS011;3122;48.208;11.174;2023-12-07T05:09:58;22.43;;;11.23;;
6177;SDS011;3122;48.208;11.174;2023-12-07T05:14:59;18.40;;;10.60;;
6177;SDS011;3122;48.208;11.174;2023-12-07T05:19:59;19.20;;;10.73;;
6177;SDS011;3122;48.208;11.174;2023-12-07T05:25:00;14.27;;;9.30;;
6177;SDS011;3122;48.208;11.174;2023-12-07T05:30:01;21.13;;;11.10;;
6177;SDS011;3122;48.208;11.174;2023-12-07T05:35:01;20.27;;;11.53;;
6177;SDS011;3122;48.208;11.174;2023-12-07T05:40:02;17.20;;;10.80;;
6177;SDS011;3122;48.208;11.174;2023-12-07T05:45:04;20.20;;;11.50;;
6177;SDS011;3122;48.208;11.174;2023-12-07T05:50:06;22.77;;;11.30;;
6177;SDS011;3122;48.208;11.174;2023-12-07T05:55:07;16.30;;;10.77;;
6177;SDS011;3122;48.208;11.174;2023-12-07T06:00:08;16.67;;;10.50;;
6177;SDS011;3122;48.208;11.174;2023-12-07T06:05:09;19.70;;;11.10;;
6177;SDS011;3122;48.208;11.174;2023-12-07T06:10:11;18.63;;;11.20;;
6177;SDS011;3122;48.208;11.174;2023-12-07T06:15:11;21.20;;;10.63;;
6177;SDS011;3122;48.208;11.174;2023-12-07T06:20:12;23.33;;;11.80;;
6177;SDS011;3122;48.208;11.174;2023-12-07T06:25:12;18.90;;;9.20;;
6177;SDS011;3122;48.208;11.174;2023-12-07T06:30:13;18.67;;;10.73;;
6177;SDS011;3122;48.208;11.174;2023-12-07T06:35:14;17.13;;;9.87;;
6177;SDS011;3122;48.208;11.174;2023-12-07T06:40:15;17.70;;;9.40;;
6177;SDS011;3122;48.208;11.174;2023-12-07T06:45:16;17.87;;;9.93;;
6177;SDS011;3122;48.208;11.174;2023-12-07T06:50:17;19.93;;;10.13;;
6177;SDS011;3122;48.208;11.174;2023-12-07T06:55:17;15.33;;;9.87;;
6177;SDS011;3122;48.208;11.174;2023-12-07T07:00:19;17.07;;;9.03;;
6177;SDS011;3122;48.208;11.174;2023-12-07T07:05:20;19.10;;;9.60;;
6177;SDS011;3122;48.208;11.174;2023-12-07T07:10:20;17.13;;;9.87;;
6177;SDS011;3122;48.208;11.174;2023-12-07T07:15:21;24.57;;;14.20;;
6177;SDS011;3122;48.208;11.174;2023-12-07T07:20:25;17.70;;;10.93;;
6177;SDS011;3122;48.208;11.174;2023-12-07T07:25:26;19.23;;;11.33;;
6177;SDS011;3122;48.208;11.174;2023-12-07T07:30:27;18.90;;;11.57;;
6177;SDS011;3122;48.208;11.174;2023-12-07T07:35:27;29.73;;;14.30;;
6177;SDS011;3122;48.208;11.174;2023-12-07T07:40:29;22.43;;;12.87;;
6177;SDS011;3122;48.208;11.174;2023-12-07T07:45:29;17.13;;;10.53;;
6177;SDS011;3122;48.208;11.174;2023-12-07T07:50:30;20.70;;;12.20;;
6177;SDS011;3122;48.208;11.174;2023-12-07T07:55:30;20.70;;;11.67;;
6177;SDS011;3122;48.208;11.174;2023-12-07T08:00:31;21.40;;;12.70;;
6177;SDS011;3122;48.208;11.174;2023-12-07T08:05:33;20.70;;;12.80;;
6177;SDS011;3122;48.208;11.174;2023-12-07T08:10:33;21.77;;;12.47;;
6177;SDS011;3122;48.208;11.174;2023-12-07T08:15:34;25.60;;;14.07;;
6177;SDS011;3122;48.208;11.174;2023-12-07T08:20:35;26.67;;;13.90;;
6177;SDS011;3122;48.208;11.174;2023-12-07T08:25:35;23.40;;;11.57;;
6177;SDS011;3122;48.208;11.174;2023-12-07T08:30:39;22.60;;;12.60;;
6177;SDS011;3122;48.208;11.174;2023-12-07T08:35:40;23.10;;;12.33;;
6177;SDS011;3122;48.208;11.174;2023-12-07T08:40:40;21.97;;;12.40;;
6177;SDS011;3122;48.208;11.174;2023-12-07T08:45:41;22.53;;;12.60;;
6177;SDS011;3122;48.208;11.174;2023-12-07T08:50:42;21.80;;;12.30;;
6177;SDS011;3122;48.208;11.174;2023-12-07T08:55:43;18.70;;;11.27;;
6177;SDS011;3122;48.208;11.174;2023-12-07T09:00:43;24.00;;;12.60;;
6177;SDS011;3122;48.208;11.174;2023-12-07T09:05:44;21.20;;;11.17;;
6177;SDS011;3122;48.208;11.174;2023-12-07T09:10:44;21.03;;;12.00;;
6177;SDS011;3122;48.208;11.174;2023-12-07T09:15:45;20.13;;;11.13;;
6177;SDS011;3122;48.208;11.174;2023-12-07T09:20:46;17.87;;;11.50;;
6177;SDS011;3122;48.208;11.174;2023-12-07T09:25:46;21.83;;;11.07;;
6177;SDS011;3122;48.208;11.174;2023-12-07T09:30:47;17.50;;;10.27;;
6177;SDS011;3122;48.208;11.174;2023-12-07T09:35:47;20.37;;;12.03;;
6177;SDS011;3122;48.208;11.174;2023-12-07T09:40:52;20.07;;;11.60;;
6177;SDS011;3122;48.208;11.174;2023-12-07T09:45:53;17.63;;;10.67;;
6177;SDS011;3122;48.208;11.174;2023-12-07T09:50:55;19.63;;;10.43;;
6177;SDS011;3122;48.208;11.174;2023-12-07T09:55:56;18.60;;;11.27;;
6177;SDS011;3122;48.208;11.174;2023-12-07T10:00:57;20.63;;;11.80;;
6177;SDS011;3122;48.208;11.174;2023-12-07T10:05:58;18.80;;;10.80;;
6177;SDS011;3122;48.208;11.174;2023-12-07T10:16:11;19.57;;;11.57;;
6177;SDS011;3122;48.208;11.174;2023-12-07T10:21:14;19.23;;;11.27;;
6177;SDS011;3122;48.208;11.174;2023-12-07T10:26:15;20.40;;;12.47;;
6177;SDS011;3122;48.208;11.174;2023-12-07T10:31:19;17.50;;;10.37;;
6177;SDS011;3122;48.208;11.174;2023-12-07T10:36:19;19.40;;;10.07;;
6177;SDS011;3122;48.208;11.174;2023-12-07T10:41:21;14.77;;;9.87;;
6177;SDS011;3122;48.208;11.174;2023-12-07T10:46:23;13.37;;;9.40;;
6177;SDS011;3122;48.208;11.174;2023-12-07T10:51:41;14.07;;;9.20;;
6177;SDS011;3122;48.208;11.174;2023-12-07T10:56:46;16.63;;;9.30;;
6177;SDS011;3122;48.208;11.174;2023-12-07T11:01:47;15.40;;;10.17;;
6177;SDS011;3122;48.208;11.174;2023-12-07T11:06:48;17.20;;;10.27;;
6177;SDS011;3122;48.208;11.174;2023-12-07T11:11:54;16.97;;;10.40;;
6177;SDS011;3122;48.208;11.174;2023-12-07T11:17:03;15.43;;;9.63;;
6177;SDS011;3122;48.208;11.174;2023-12-07T11:22:05;16.13;;;10.07;;
6177;SDS011;3122;48.208;11.174;2023-12-07T11:27:06;14.03;;;9.87;;
6177;SDS011;3122;48.208;11.174;2023-12-07T11:32:07;15.63;;;9.60;;
6177;SDS011;3122;48.208;11.174;2023-12-07T11:37:08;14.10;;;9.20;;
6177;SDS011;3122;48.208;11.174;2023-12-07T11:42:19;13.80;;;9.33;;
6177;SDS011;3122;48.208;11.174;2023-12-07T11:47:20;12.73;;;8.80;;
6177;SDS011;3122;48.208;11.174;2023-12-07T11:52:21;16.20;;;10.13;;
6177;SDS011;3122;48.208;11.174;2023-12-07T11:57:21;11.33;;;8.00;;
6177;SDS011;3122;48.208;11.174;2023-12-07T12:02:22;13.30;;;8.30;;
6177;SDS011;3122;48.208;11.174;2023-12-07T12:07:23;12.73;;;8.73;;
6177;SDS011;3122;48.208;11.174;2023-12-07T12:12:25;17.10;;;9.60;;
6177;SDS011;3122;48.208;11.174;2023-12-07T12:17:26;13.30;;;9.27;;
6177;SDS011;3122;48.208;11.174;2023-12-07T12:22:26;15.57;;;9.40;;
6177;SDS011;3122;48.208;11.174;2023-12-07T12:27:27;12.07;;;8.10;;
6177;SDS011;3122;48.208;11.174;2023-12-07T12:32:33;12.03;;;7.53;;
6177;SDS011;3122;48.208;11.174;2023-12-07T12:37:46;15.73;;;9.00;;
6177;SDS011;3122;48.208;11.174;2023-12-07T12:42:51;14.10;;;9.00;;
6177;SDS011;3122;48.208;11.174;2023-12-07T12:47:52;14.37;;;8.33;;
6177;SDS011;3122;48.208;11.174;2023-12-07T12:52:53;12.30;;;8.80;;
6177;SDS011;3122;48.208;11.174;2023-12-07T12:57:55;16.30;;;10.20;;
6177;SDS011;3122;48.208;11.174;2023-12-07T13:02:57;26.77;;;9.47;;
6177;SDS011;3122;48.208;11.174;2023-12-07T13:07:57;15.07;;;8.63;;
6177;SDS011;3122;48.208;11.174;2023-12-07T13:12:59;10.20;;;7.37;;
6177;SDS011;3122;48.208;11.174;2023-12-07T13:18:00;13.30;;;7.83;;
6177;SDS011;3122;48.208;11.174;2023-12-07T13:23:00;7.77;;;6.13;;
6177;SDS011;3122;48.208;11.174;2023-12-07T13:28:01;7.63;;;5.50;;
6177;SDS011;3122;48.208;11.174;2023-12-07T13:33:02;7.27;;;4.77;;
6177;SDS011;3122;48.208;11.174;2023-12-07T13:38:04;11.90;;;6.57;;
6177;SDS011;3122;48.208;11.174;2023-12-07T13:43:04;6.60;;;5.10;;
6177;SDS011;3122;48.208;11.174;2023-12-07T13:48:06;8.03;;;4.13;;
6177;SDS011;3122;48.208;11.174;2023-12-07T13:53:07;5.87;;;4.40;;
6177;SDS011;3122;48.208;11.174;2023-12-07T13:58:10;9.97;;;6.67;;
6177;SDS011;3122;48.208;11.174;2023-12-07T14:03:11;10.20;;;6.17;;
6177;SDS011;3122;48.208;11.174;2023-12-07T14:08:11;9.90;;;6.90;;
6177;SDS011;3122;48.208;11.174;2023-12-07T14:13:12;12.50;;;7.20;;
6177;SDS011;3122;48.208;11.174;2023-12-07T14:18:13;10.63;;;6.80;;
6177;SDS011;3122;48.208;11.174;2023-12-07T14:23:13;11.97;;;7.63;;
6177;SDS011;3122;48.208;11.174;2023-12-07T14:28:15;17.40;;;8.53;;
6177;SDS011;3122;48.208;11.174;2023-12-07T14:33:17;16.10;;;9.50;;
6177;SDS011;3122;48.208;11.174;2023-12-07T14:38:17;15.70;;;9.43;;
6177;SDS011;3122;48.208;11.174;2023-12-07T14:43:18;19.30;;;9.77;;
6177;SDS011;3122;48.208;11.174;2023-12-07T14:48:20;15.37;;;9.83;;
6177;SDS011;3122;48.208;11.174;2023-12-07T14:53:20;14.80;;;9.60;;
6177;SDS011;3122;48.208;11.174;2023-12-07T14:58:23;16.43;;;10.30;;
6177;SDS011;3122;48.208;11.174;2023-12-07T15:03:25;20.03;;;11.67;;
6177;SDS011;3122;48.208;11.174;2023-12-07T15:08:25;20.07;;;11.80;;
6177;SDS011;3122;48.208;11.174;2023-12-07T15:13:26;17.83;;;11.67;;
6177;SDS011;3122;48.208;11.174;2023-12-07T15:18:26;17.80;;;11.13;;
6177;SDS011;3122;48.208;11.174;2023-12-07T15:23:30;18.53;;;11.27;;
6177;SDS011;3122;48.208;11.174;2023-12-07T15:28:31;19.90;;;10.87;;
6177;SDS011;3122;48.208;11.174;2023-12-07T15:33:31;18.03;;;11.23;;
6177;SDS011;3122;48.208;11.174;2023-12-07T15:38:32;22.23;;;12.13;;
6177;SDS011;3122;48.208;11.174;2023-12-07T15:43:33;23.00;;;12.20;;
6177;SDS011;3122;48.208;11.174;2023-12-07T15:48:34;21.60;;;12.40;;
6177;SDS011;3122;48.208;11.174;2023-12-07T15:53:35;24.07;;;13.33;;
6177;SDS011;3122;48.208;11.174;2023-12-07T15:58:35;22.50;;;12.97;;
6177;SDS011;3122;48.208;11.174;2023-12-07T16:03:36;25.07;;;13.63;;
6177;SDS011;3122;48.208;11.174;2023-12-07T16:08:36;21.83;;;12.90;;
6177;SDS011;3122;48.208;11.174;2023-12-07T16:13:37;29.47;;;16.70;;
6177;SDS011;3122;48.208;11.174;2023-12-07T16:18:37;24.10;;;13.90;;
6177;SDS011;3122;48.208;11.174;2023-12-07T16:23:38;23.97;;;15.13;;
6177;SDS011;3122;48.208;11.174;2023-12-07T16:28:38;22.40;;;12.97;;
6177;SDS011;3122;48.208;11.174;2023-12-07T16:33:39;33.20;;;16.53;;
6177;SDS011;3122;48.208;11.174;2023-12-07T16:38:39;38.07;;;21.30;;
6177;SDS011;3122;48.208;11.174;2023-12-07T16:43:43;27.40;;;15.40;;
6177;SDS011;3122;48.208;11.174;2023-12-07T16:48:43;22.23;;;13.10;;
6177;SDS011;3122;48.208;11.174;2023-12-07T16:53:44;25.80;;;13.53;;
6177;SDS011;3122;48.208;11.174;2023-12-07T16:58:45;22.10;;;13.50;;
6177;SDS011;3122;48.208;11.174;2023-12-07T17:03:45;29.30;;;16.60;;
6177;SDS011;3122;48.208;11.174;2023-12-07T17:08:46;28.13;;;14.90;;
6177;SDS011;3122;48.208;11.174;2023-12-07T17:13:47;27.70;;;15.23;;
6177;SDS011;3122;48.208;11.174;2023-12-07T17:18:48;24.50;;;13.80;;
6177;SDS011;3122;48.208;11.174;2023-12-07T17:23:51;27.63;;;15.70;;
6177;SDS011;3122;48.208;11.174;2023-12-07T17:28:51;26.00;;;14.73;;
6177;SDS011;3122;48.208;11.174;2023-12-07T17:33:52;27.40;;;15.07;;
6177;SDS011;3122;48.208;11.174;2023-12-07T17:38:52;28.00;;;15.33;;
6177;SDS011;3122;48.208;11.174;2023-12-07T17:43:53;26.07;;;13.73;;
6177;SDS011;3122;48.208;11.174;2023-12-07T17:48:53;26.27;;;14.57;;
6177;SDS011;3122;48.208;11.174;2023-12-07T17:53:54;26.77;;;14.03;;
6177;SDS011;3122;48.208;11.174;2023-12-07T17:58:55;26.30;;;13.47;;
6177;SDS011;3122;48.208;11.174;2023-12-07T18:03:56;26.20;;;13.37;;
6177;SDS011;3122;48.208;11.174;2023-12-07T18:08:56;27.00;;;14.40;;
6177;SDS011;3122;48.208;11.174;2023-12-07T18:13:57;25.53;;;14.33;;
6177;SDS011;3122;48.208;11.174;2023-12-07T18:18:57;26.70;;;14.03;;
6177;SDS011;3122;48.208;11.174;2023-12-07T18:23:58;25.00;;;13.40;;
6177;SDS011;3122;48.208;11.174;2023-12-07T18:28:59;24.67;;;14.00;;
6177;SDS011;3122;48.208;11.174;2023-12-07T18:34:01;24.07;;;12.70;;
6177;SDS011;3122;48.208;11.174;2023-12-07T18:39:01;24.20;;;14.23;;
6177;SDS011;3122;48.208;11.174;2023-12-07T18:44:02;25.40;;;13.60;;
6177;SDS011;3122;48.208;11.174;2023-12-07T18:49:02;23.63;;;14.43;;
6177;SDS011;3122;48.208;11.174;2023-12-07T18:54:03;27.73;;;14.27;;
6177;SDS011;3122;48.208;11.174;2023-12-07T18:59:04;23.63;;;13.33;;
6177;SDS011;3122;48.208;11.174;2023-12-07T19:04:04;25.53;;;13.33;;
6177;SDS011;3122;48.208;11.174;2023-12-07T19:09:05;23.63;;;13.67;;
6177;SDS011;3122;48.208;11.174;2023-12-07T19:14:08;20.67;;;12.70;;
6177;SDS011;3122;48.208;11.174;2023-12-07T19:19:08;26.93;;;14.50;;
6177;SDS011;3122;48.208;11.174;2023-12-07T19:24:09;21.57;;;13.67;;
6177;SDS011;3122;48.208;11.174;2023-12-07T19:29:09;25.10;;;14.03;;
6177;SDS011;3122;48.208;11.174;2023-12-07T19:34:11;25.13;;;13.80;;
6177;SDS011;3122;48.208;11.174;2023-12-07T19:39:12;25.50;;;13.03;;
6177;SDS011;3122;48.208;11.174;2023-12-07T19:44:16;21.80;;;12.50;;
6177;SDS011;3122;48.208;11.174;2023-12-07T19:49:17;24.87;;;13.10;;
6177;SDS011;3122;48.208;11.174;2023-12-07T19:54:18;30.03;;;13.27;;
6177;SDS011;3122;48.208;11.174;2023-12-07T19:59:23;25.57;;;13.50;;
6177;SDS011;3122;48.208;11.174;2023-12-07T20:04:24;28.10;;;14.33;;
6177;SDS011;3122;48.208;11.174;2023-12-07T20:09:24;24.73;;;13.90;;
6177;SDS011;3122;48.208;11.174;2023-12-07T20:14:25;27.13;;;13.73;;
6177;SDS011;3122;48.208;11.174;2023-12-07T20:19:25;29.00;;;14.97;;
6177;SDS011;3122;48.208;11.174;2023-12-07T20:24:26;31.90;;;15.43;;
6177;SDS011;3122;48.208;11.174;2023-12-07T20:29:27;32.70;;;16.77;;
6177;SDS011;3122;48.208;11.174;2023-12-07T20:34:27;31.57;;;15.50;;
6177;SDS011;3122;48.208;11.174;2023-12-07T20:39:30;28.40;;;15.57;;
6177;SDS011;3122;48.208;11.174;2023-12-07T20:44:31;31.90;;;15.90;;
6177;SDS011;3122;48.208;11.174;2023-12-07T20:49:31;27.27;;;14.63;;
6177;SDS011;3122;48.208;11.174;2023-12-07T20:54:32;23.00;;;13.70;;
6177;SDS011;3122;48.208;11.174;2023-12-07T20:59:33;22.73;;;13.10;;
6177;SDS011;3122;48.208;11.174;2023-12-07T21:04:34;28.40;;;14.90;;
6177;SDS011;3122;48.208;11.174;2023-12-07T21:09:35;24.37;;;13.20;;
6177;SDS011;3122;48.208;11.174;2023-12-07T21:14:35;23.53;;;11.63;;
6177;SDS011;3122;48.208;11.174;2023-12-07T21:19:36;18.80;;;11.00;;
6177;SDS011;3122;48.208;11.174;2023-12-07T21:24:37;23.40;;;11.57;;
6177;SDS011;3122;48.208;11.174;2023-12-07T21:29:37;22.47;;;11.90;;
6177;SDS011;3122;48.208;11.174;2023-12-07T21:34:40;49.80;;;18.23;;
6177;SDS011;3122;48.208;11.174;2023-12-07T21:39:41;28.90;;;15.07;;
6177;SDS011;3122;48.208;11.174;2023-12-07T21:44:42;31.70;;;15.93;;
6177;SDS011;3122;48.208;11.174;2023-12-07T21:49:43;35.17;;;17.33;;
6177;SDS011;3122;48.208;11.174;2023-12-07T21:54:43;31.00;;;15.30;;
6177;SDS011;3122;48.208;11.174;2023-12-07T21:59:44;26.83;;;14.27;;
6177;SDS011;3122;48.208;11.174;2023-12-07T22:04:44;32.53;;;16.13;;
6177;SDS011;3122;48.208;11.174;2023-12-07T22:09:45;21.13;;;12.00;;
6177;SDS011;3122;48.208;11.174;2023-12-07T22:14:45;25.20;;;13.07;;
6177;SDS011;3122;48.208;11.174;2023-12-07T22:19:49;27.13;;;14.20;;
6177;SDS011;3122;48.208;11.174;2023-12-07T22:24:50;25.13;;;13.13;;
6177;SDS011;3122;48.208;11.174;2023-12-07T22:29:50;29.80;;;14.40;;
6177;SDS011;3122;48.208;11.174;2023-12-07T22:34:51;26.53;;;14.30;;
6177;SDS011;3122;48.208;11.174;2023-12-07T22:39:51;23.20;;;13.30;;
6177;SDS011;3122;48.208;11.174;2023-12-07T22:44:52;27.80;;;14.40;;
6177;SDS011;3122;48.208;11.174;2023-12-07T22:49:52;25.57;;;14.20;;
6177;SDS011;3122;48.208;11.174;2023-12-07T22:54:53;29.83;;;14.33;;
6177;SDS011;3122;48.208;11.174;2023-12-07T22:59:53;32.67;;;15.60;;
6177;SDS011;3122;48.208;11.174;2023-12-07T23:04:54;27.93;;;14.50;;
6177;SDS011;3122;48.208;11.174;2023-12-07T23:09:54;31.60;;;16.20;;
6177;SDS011;3122;48.208;11.174;2023-12-07T23:14:55;31.83;;;15.07;;
6177;SDS011;3122;48.208;11.174;2023-12-07T23:19:55;29.97;;;14.67;;
6177;SDS011;3122;48.208;11.174;2023-12-07T23:24:57;27.87;;;14.23;;
6177;SDS011;3122;48.208;11.174;2023-12-07T23:29:57;32.30;;;14.63;;
6177;SDS011;3122;48.208;11.174;2023-12-07T23:34:58;27.30;;;14.00;;
6177;SDS011;3122;48.208;11.174;2023-12-07T23:39:58;29.13;;;14.80;;
6177;SDS011;3122;48.208;11.174;2023-12-07T23:44:59;26.07;;;13.17;;
6177;SDS011;3122;48.208;11.174;2023-12-07T23:50:00;25.00;;;12.43;;
6177;SDS011;3122;48.208;11.174;2023-12-07T23:55:00;25.30;;;13.07;;
